This is the latest recevied weather packets stored in our database for station/object KJ5IMV-9. If no packets are shown the sender has not sent any weather packets the latest 10 day(s).
| Time | Temp. | Humidity | Pressure | Rain* | Wind** | Luminosity | Snow |
|---|---|---|---|---|---|---|---|
| 1788141008 | 87° F | 76% | 756.2 mmHg | - | - | - | - |
| 1788140707 | 87° F | 75% | 756.2 mmHg | - | - | - | - |
| 1788140105 | 88° F | 74% | 756.2 mmHg | - | - | - | - |
| 1788139501 | 88° F | 73% | 756.1 mmHg | - | - | - | - |
| 1788136788 | 90° F | 69% | 756 mmHg | - | - | - | - |
| 1788136186 | 91° F | 71% | 755.9 mmHg | - | - | - | - |
| 1788135584 | 92° F | 69% | 755.8 mmHg | - | - | - | - |
| 1788134980 | 92° F | 68% | 755.7 mmHg | - | - | - | - |
| 1788134678 | 93° F | 66% | 755.8 mmHg | - | - | - | - |
| 1788134075 | 93° F | 64% | 755.8 mmHg | - | - | - | - |
| 1788133774 | 93° F | 63% | 755.8 mmHg | - | - | - | - |
| 1788133472 | 93° F | 62% | 755.8 mmHg | - | - | - | - |
| 1788131966 | 94° F | 59% | 755.7 mmHg | - | - | - | - |
| 1788110863 | 92° F | 72% | 758.7 mmHg | - | - | - | - |
| 1788110262 | 91° F | 72% | 758.8 mmHg | - | - | - | - |
| 1788109959 | 91° F | 72% | 758.7 mmHg | - | - | - | - |
| 1788109659 | 91° F | 71% | 758.7 mmHg | - | - | - | - |
| 1788109056 | 93° F | 70% | 758.8 mmHg | - | - | - | - |
| 1788108754 | 93° F | 69% | 758.9 mmHg | - | - | - | - |
| 1788108451 | 93° F | 71% | 758.9 mmHg | - | - | - | - |
| 1788106945 | 92° F | 72% | 759 mmHg | - | - | - | - |
| 1788106643 | 92° F | 73% | 758.9 mmHg | - | - | - | - |
| 1788106342 | 92° F | 77% | 759 mmHg | - | - | - | - |
| 1788106040 | 92° F | 79% | 759.1 mmHg | - | - | - | - |
| 1788105739 | 91° F | 78% | 759.1 mmHg | - | - | - | - |
* Rain since midnight (hover to see other rain measurements)
** Current wind speed in m/s (hover to see current wind gust speed)